sensor_id;sensor_type;location;lat;lon;timestamp;pressure;altitude;pressure_sealevel;temperature;humidity
43701;BME280;58809;47.984;7.964;2023-01-24T00:00:12;98202.44;;;2.77;86.86
43701;BME280;58809;47.984;7.964;2023-01-24T00:03:14;98213.59;;;2.79;86.41
43701;BME280;58809;47.984;7.964;2023-01-24T00:06:16;98209.09;;;2.81;86.69
43701;BME280;58809;47.984;7.964;2023-01-24T00:09:18;98206.47;;;2.81;86.59
43701;BME280;58809;47.984;7.964;2023-01-24T00:12:20;98208.78;;;2.86;86.44
43701;BME280;58809;47.984;7.964;2023-01-24T00:15:21;98216.50;;;2.87;86.50
43701;BME280;58809;47.984;7.964;2023-01-24T00:18:24;98205.13;;;2.88;86.70
43701;BME280;58809;47.984;7.964;2023-01-24T00:21:25;98206.91;;;2.88;86.12
43701;BME280;58809;47.984;7.964;2023-01-24T00:24:27;98208.44;;;2.91;86.33
43701;BME280;58809;47.984;7.964;2023-01-24T00:27:29;98215.13;;;2.95;86.03
43701;BME280;58809;47.984;7.964;2023-01-24T00:30:32;98216.81;;;2.96;86.76
43701;BME280;58809;47.984;7.964;2023-01-24T00:33:34;98211.59;;;2.96;86.17
43701;BME280;58809;47.984;7.964;2023-01-24T00:36:36;98219.09;;;3.00;85.74
43701;BME280;58809;47.984;7.964;2023-01-24T00:39:38;98216.38;;;3.02;85.55
43701;BME280;58809;47.984;7.964;2023-01-24T00:42:39;98214.72;;;3.01;85.90
43701;BME280;58809;47.984;7.964;2023-01-24T00:45:41;98202.47;;;3.01;86.21
43701;BME280;58809;47.984;7.964;2023-01-24T00:48:45;98210.94;;;3.05;85.72
43701;BME280;58809;47.984;7.964;2023-01-24T00:51:46;98209.03;;;3.07;85.48
43701;BME280;58809;47.984;7.964;2023-01-24T00:54:48;98210.94;;;3.05;85.31
43701;BME280;58809;47.984;7.964;2023-01-24T00:57:50;98210.31;;;3.01;85.91
43701;BME280;58809;47.984;7.964;2023-01-24T01:00:56;98213.97;;;3.12;86.43
43701;BME280;58809;47.984;7.964;2023-01-24T01:03:58;98219.91;;;3.14;85.99
43701;BME280;58809;47.984;7.964;2023-01-24T01:06:59;98218.66;;;3.06;85.92
43701;BME280;58809;47.984;7.964;2023-01-24T01:10:02;98215.34;;;3.04;85.57
43701;BME280;58809;47.984;7.964;2023-01-24T01:13:04;98215.59;;;3.13;85.11
43701;BME280;58809;47.984;7.964;2023-01-24T01:16:10;98206.94;;;3.12;84.46
43701;BME280;58809;47.984;7.964;2023-01-24T01:19:12;98217.50;;;3.11;84.54
43701;BME280;58809;47.984;7.964;2023-01-24T01:22:13;98223.69;;;3.10;85.07
43701;BME280;58809;47.984;7.964;2023-01-24T01:25:15;98219.19;;;3.12;85.14
43701;BME280;58809;47.984;7.964;2023-01-24T01:28:16;98222.00;;;3.08;86.00
43701;BME280;58809;47.984;7.964;2023-01-24T01:31:19;98226.91;;;3.13;85.54
43701;BME280;58809;47.984;7.964;2023-01-24T01:34:21;98221.47;;;3.16;85.24
43701;BME280;58809;47.984;7.964;2023-01-24T01:37:22;98225.31;;;3.23;85.07
43701;BME280;58809;47.984;7.964;2023-01-24T01:40:24;98231.50;;;3.22;84.50
43701;BME280;58809;47.984;7.964;2023-01-24T01:43:28;98224.69;;;3.20;83.97
43701;BME280;58809;47.984;7.964;2023-01-24T01:46:42;98225.66;;;3.19;83.90
43701;BME280;58809;47.984;7.964;2023-01-24T01:50:15;98228.03;;;3.22;84.04
43701;BME280;58809;47.984;7.964;2023-01-24T01:53:26;98227.31;;;3.20;84.02
43701;BME280;58809;47.984;7.964;2023-01-24T01:56:33;98223.16;;;3.17;83.50
43701;BME280;58809;47.984;7.964;2023-01-24T01:59:40;98225.03;;;3.15;84.05
43701;BME280;58809;47.984;7.964;2023-01-24T02:02:45;98233.59;;;3.17;83.65
43701;BME280;58809;47.984;7.964;2023-01-24T02:05:48;98228.47;;;3.16;84.08
43701;BME280;58809;47.984;7.964;2023-01-24T02:08:53;98237.25;;;3.15;84.37
43701;BME280;58809;47.984;7.964;2023-01-24T02:12:00;98239.34;;;3.22;83.87
43701;BME280;58809;47.984;7.964;2023-01-24T02:15:09;98228.03;;;3.22;83.39
43701;BME280;58809;47.984;7.964;2023-01-24T02:18:30;98235.66;;;3.25;83.09
43701;BME280;58809;47.984;7.964;2023-01-24T02:21:33;98245.31;;;3.24;82.51
43701;BME280;58809;47.984;7.964;2023-01-24T02:24:40;98247.41;;;3.19;82.81
43701;BME280;58809;47.984;7.964;2023-01-24T02:27:43;98250.63;;;3.23;83.72
43701;BME280;58809;47.984;7.964;2023-01-24T02:30:45;98247.19;;;3.22;83.56
43701;BME280;58809;47.984;7.964;2023-01-24T02:33:48;98245.63;;;3.20;83.79
43701;BME280;58809;47.984;7.964;2023-01-24T02:36:52;98246.34;;;3.22;83.44
43701;BME280;58809;47.984;7.964;2023-01-24T02:42:58;98247.91;;;3.24;83.47
43701;BME280;58809;47.984;7.964;2023-01-24T02:46:02;98240.91;;;3.25;83.14
43701;BME280;58809;47.984;7.964;2023-01-24T02:49:08;98249.88;;;3.34;83.23
43701;BME280;58809;47.984;7.964;2023-01-24T02:52:10;98258.44;;;3.36;83.13
43701;BME280;58809;47.984;7.964;2023-01-24T02:55:30;98259.94;;;3.27;83.38
43701;BME280;58809;47.984;7.964;2023-01-24T02:58:31;98260.28;;;3.22;83.71
43701;BME280;58809;47.984;7.964;2023-01-24T03:01:33;98264.53;;;3.23;83.59
43701;BME280;58809;47.984;7.964;2023-01-24T03:04:35;98268.72;;;3.26;83.35
43701;BME280;58809;47.984;7.964;2023-01-24T03:07:37;98262.44;;;3.28;84.02
43701;BME280;58809;47.984;7.964;2023-01-24T03:10:52;98270.09;;;3.32;84.35
43701;BME280;58809;47.984;7.964;2023-01-24T03:13:53;98279.78;;;3.30;83.92
43701;BME280;58809;47.984;7.964;2023-01-24T03:17:15;98276.16;;;3.32;83.75
43701;BME280;58809;47.984;7.964;2023-01-24T03:20:34;98279.38;;;3.36;83.38
43701;BME280;58809;47.984;7.964;2023-01-24T03:23:55;98287.03;;;3.26;83.69
43701;BME280;58809;47.984;7.964;2023-01-24T03:27:15;98280.97;;;3.25;83.72
43701;BME280;58809;47.984;7.964;2023-01-24T03:30:36;98293.22;;;3.25;83.96
43701;BME280;58809;47.984;7.964;2023-01-24T03:33:56;98298.25;;;3.28;83.06
43701;BME280;58809;47.984;7.964;2023-01-24T03:37:20;98306.19;;;3.26;82.65
43701;BME280;58809;47.984;7.964;2023-01-24T03:40:42;98307.84;;;3.27;82.55
43701;BME280;58809;47.984;7.964;2023-01-24T03:43:44;98304.50;;;3.25;82.78
43701;BME280;58809;47.984;7.964;2023-01-24T03:46:47;98306.41;;;3.23;83.39
43701;BME280;58809;47.984;7.964;2023-01-24T03:49:49;98307.47;;;3.21;83.33
43701;BME280;58809;47.984;7.964;2023-01-24T03:53:10;98310.19;;;3.19;83.13
43701;BME280;58809;47.984;7.964;2023-01-24T03:56:12;98324.81;;;3.22;83.04
43701;BME280;58809;47.984;7.964;2023-01-24T03:59:19;98326.59;;;3.21;83.09
43701;BME280;58809;47.984;7.964;2023-01-24T04:02:22;98313.63;;;3.20;84.21
43701;BME280;58809;47.984;7.964;2023-01-24T04:05:24;98319.38;;;3.25;83.40
43701;BME280;58809;47.984;7.964;2023-01-24T04:08:26;98316.13;;;3.21;83.21
43701;BME280;58809;47.984;7.964;2023-01-24T04:11:28;98312.19;;;3.16;83.80
43701;BME280;58809;47.984;7.964;2023-01-24T04:14:45;98324.91;;;3.20;83.85
43701;BME280;58809;47.984;7.964;2023-01-24T04:17:47;98322.53;;;3.17;83.76
43701;BME280;58809;47.984;7.964;2023-01-24T04:20:49;98317.81;;;3.22;83.40
43701;BME280;58809;47.984;7.964;2023-01-24T04:23:52;98315.81;;;3.26;83.30
43701;BME280;58809;47.984;7.964;2023-01-24T04:26:54;98327.13;;;3.26;83.06
43701;BME280;58809;47.984;7.964;2023-01-24T04:30:05;98329.84;;;3.25;83.30
43701;BME280;58809;47.984;7.964;2023-01-24T04:33:09;98326.50;;;3.23;83.16
43701;BME280;58809;47.984;7.964;2023-01-24T04:36:10;98331.00;;;3.21;82.92
43701;BME280;58809;47.984;7.964;2023-01-24T04:39:14;98334.56;;;3.20;83.58
43701;BME280;58809;47.984;7.964;2023-01-24T04:42:34;98335.38;;;3.20;83.11
43701;BME280;58809;47.984;7.964;2023-01-24T04:45:36;98345.97;;;3.19;82.98
43701;BME280;58809;47.984;7.964;2023-01-24T04:48:40;98339.88;;;3.18;82.84
43701;BME280;58809;47.984;7.964;2023-01-24T04:51:42;98346.59;;;3.22;82.73
43701;BME280;58809;47.984;7.964;2023-01-24T04:54:50;98342.50;;;3.18;82.43
43701;BME280;58809;47.984;7.964;2023-01-24T04:57:53;98343.22;;;3.20;82.70
43701;BME280;58809;47.984;7.964;2023-01-24T05:00:55;98345.63;;;3.23;82.80
43701;BME280;58809;47.984;7.964;2023-01-24T05:04:02;98347.94;;;3.28;82.73
43701;BME280;58809;47.984;7.964;2023-01-24T05:07:04;98347.94;;;3.28;82.93
43701;BME280;58809;47.984;7.964;2023-01-24T05:10:07;98357.78;;;3.24;82.25
43701;BME280;58809;47.984;7.964;2023-01-24T05:13:09;98353.38;;;3.25;83.02
43701;BME280;58809;47.984;7.964;2023-01-24T05:16:11;98365.09;;;3.32;82.95
43701;BME280;58809;47.984;7.964;2023-01-24T05:19:14;98361.41;;;3.35;82.28
43701;BME280;58809;47.984;7.964;2023-01-24T05:22:16;98359.53;;;3.37;82.68
43701;BME280;58809;47.984;7.964;2023-01-24T05:25:17;98367.38;;;3.37;82.78
43701;BME280;58809;47.984;7.964;2023-01-24T05:28:19;98370.94;;;3.36;82.39
43701;BME280;58809;47.984;7.964;2023-01-24T05:31:22;98360.69;;;3.33;82.58
43701;BME280;58809;47.984;7.964;2023-01-24T05:34:24;98362.78;;;3.27;82.64
43701;BME280;58809;47.984;7.964;2023-01-24T05:37:26;98364.16;;;3.20;82.28
43701;BME280;58809;47.984;7.964;2023-01-24T05:40:29;98367.53;;;3.22;82.52
43701;BME280;58809;47.984;7.964;2023-01-24T05:43:31;98370.00;;;3.24;82.64
43701;BME280;58809;47.984;7.964;2023-01-24T05:46:33;98377.66;;;3.27;82.98
43701;BME280;58809;47.984;7.964;2023-01-24T05:49:42;98388.53;;;3.34;82.42
43701;BME280;58809;47.984;7.964;2023-01-24T05:52:44;98367.28;;;3.25;82.45
43701;BME280;58809;47.984;7.964;2023-01-24T05:55:46;98384.84;;;3.36;82.49
43701;BME280;58809;47.984;7.964;2023-01-24T05:58:48;98379.72;;;3.35;82.39
43701;BME280;58809;47.984;7.964;2023-01-24T06:01:52;98385.81;;;3.35;82.26
43701;BME280;58809;47.984;7.964;2023-01-24T06:04:54;98389.38;;;3.34;81.92
43701;BME280;58809;47.984;7.964;2023-01-24T06:07:56;98394.16;;;3.27;81.99
43701;BME280;58809;47.984;7.964;2023-01-24T06:11:07;98404.63;;;3.27;81.76
43701;BME280;58809;47.984;7.964;2023-01-24T06:14:27;98402.25;;;3.24;82.17
43701;BME280;58809;47.984;7.964;2023-01-24T06:17:28;98395.34;;;3.23;81.92
43701;BME280;58809;47.984;7.964;2023-01-24T06:20:30;98411.22;;;3.20;81.52
43701;BME280;58809;47.984;7.964;2023-01-24T06:23:32;98419.72;;;3.24;81.79
43701;BME280;58809;47.984;7.964;2023-01-24T06:26:36;98418.34;;;3.31;82.52
43701;BME280;58809;47.984;7.964;2023-01-24T06:29:38;98426.09;;;3.33;81.78
43701;BME280;58809;47.984;7.964;2023-01-24T06:36:07;98424.94;;;3.37;81.88
43701;BME280;58809;47.984;7.964;2023-01-24T06:39:14;98428.28;;;3.39;81.67
43701;BME280;58809;47.984;7.964;2023-01-24T06:42:18;98431.84;;;3.38;81.28
43701;BME280;58809;47.984;7.964;2023-01-24T06:45:20;98440.44;;;3.40;81.77
43701;BME280;58809;47.984;7.964;2023-01-24T06:48:23;98439.59;;;3.39;81.67
43701;BME280;58809;47.984;7.964;2023-01-24T06:51:24;98431.53;;;3.42;81.34
43701;BME280;58809;47.984;7.964;2023-01-24T06:54:26;98428.28;;;3.39;81.26
43701;BME280;58809;47.984;7.964;2023-01-24T06:57:27;98435.84;;;3.31;81.77
43701;BME280;58809;47.984;7.964;2023-01-24T07:00:29;98432.47;;;3.28;81.06
43701;BME280;58809;47.984;7.964;2023-01-24T07:03:31;98434.78;;;3.33;80.79
43701;BME280;58809;47.984;7.964;2023-01-24T07:06:33;98447.75;;;3.35;80.69
43701;BME280;58809;47.984;7.964;2023-01-24T07:09:34;98451.53;;;3.31;81.00
43701;BME280;58809;47.984;7.964;2023-01-24T07:12:36;98447.66;;;3.23;81.26
43701;BME280;58809;47.984;7.964;2023-01-24T07:15:37;98446.00;;;3.22;81.37
43701;BME280;58809;47.984;7.964;2023-01-24T07:18:39;98458.66;;;3.28;81.05
43701;BME280;58809;47.984;7.964;2023-01-24T07:21:42;98460.31;;;3.30;80.18
43701;BME280;58809;47.984;7.964;2023-01-24T07:24:43;98448.38;;;3.25;80.79
43701;BME280;58809;47.984;7.964;2023-01-24T07:27:46;98475.19;;;3.42;80.33
43701;BME280;58809;47.984;7.964;2023-01-24T07:30:48;98476.97;;;3.41;80.74
43701;BME280;58809;47.984;7.964;2023-01-24T07:33:50;98475.59;;;3.36;80.25
43701;BME280;58809;47.984;7.964;2023-01-24T07:36:52;98473.91;;;3.35;79.79
43701;BME280;58809;47.984;7.964;2023-01-24T07:39:53;98476.75;;;3.32;79.08
43701;BME280;58809;47.984;7.964;2023-01-24T07:42:55;98474.00;;;3.33;79.35
43701;BME280;58809;47.984;7.964;2023-01-24T07:45:57;98483.66;;;3.33;78.57
43701;BME280;58809;47.984;7.964;2023-01-24T07:48:58;98485.53;;;3.31;78.71
43701;BME280;58809;47.984;7.964;2023-01-24T07:52:00;98495.72;;;3.35;78.45
43701;BME280;58809;47.984;7.964;2023-01-24T07:55:02;98498.09;;;3.38;78.78
43701;BME280;58809;47.984;7.964;2023-01-24T07:58:04;98497.38;;;3.36;78.47
43701;BME280;58809;47.984;7.964;2023-01-24T08:01:05;98511.19;;;3.38;78.35
43701;BME280;58809;47.984;7.964;2023-01-24T08:04:07;98509.28;;;3.40;78.25
43701;BME280;58809;47.984;7.964;2023-01-24T08:07:09;98502.81;;;3.46;77.57
43701;BME280;58809;47.984;7.964;2023-01-24T08:10:28;98504.50;;;3.47;77.69
43701;BME280;58809;47.984;7.964;2023-01-24T08:13:30;98508.66;;;3.37;77.56
43701;BME280;58809;47.984;7.964;2023-01-24T08:16:32;98510.16;;;3.41;77.58
43701;BME280;58809;47.984;7.964;2023-01-24T08:19:33;98514.53;;;3.40;78.14
43701;BME280;58809;47.984;7.964;2023-01-24T08:22:55;98525.44;;;3.47;77.75
43701;BME280;58809;47.984;7.964;2023-01-24T08:26:00;98504.50;;;3.47;77.72
43701;BME280;58809;47.984;7.964;2023-01-24T08:29:01;98517.88;;;3.42;77.29
43701;BME280;58809;47.984;7.964;2023-01-24T08:32:03;98524.16;;;3.40;78.11
43701;BME280;58809;47.984;7.964;2023-01-24T08:35:05;98526.03;;;3.38;77.93
43701;BME280;58809;47.984;7.964;2023-01-24T08:38:07;98530.22;;;3.40;78.21
43701;BME280;58809;47.984;7.964;2023-01-24T08:41:09;98529.28;;;3.41;77.89
43701;BME280;58809;47.984;7.964;2023-01-24T08:44:11;98541.31;;;3.44;77.93
43701;BME280;58809;47.984;7.964;2023-01-24T08:47:12;98542.69;;;3.50;77.98
43701;BME280;58809;47.984;7.964;2023-01-24T08:50:14;98543.84;;;3.58;77.89
43701;BME280;58809;47.984;7.964;2023-01-24T08:53:17;98546.16;;;3.63;77.42
43701;BME280;58809;47.984;7.964;2023-01-24T08:56:19;98535.16;;;3.71;76.90
43701;BME280;58809;47.984;7.964;2023-01-24T08:59:21;98539.75;;;4.05;78.13
43701;BME280;58809;47.984;7.964;2023-01-24T09:02:23;98540.38;;;3.96;76.81
43701;BME280;58809;47.984;7.964;2023-01-24T09:05:24;98537.97;;;3.93;76.02
43701;BME280;58809;47.984;7.964;2023-01-24T09:08:27;98552.44;;;3.86;76.77
43701;BME280;58809;47.984;7.964;2023-01-24T09:11:28;98556.53;;;3.90;76.16
43701;BME280;58809;47.984;7.964;2023-01-24T09:14:30;98553.28;;;3.87;75.63
43701;BME280;58809;47.984;7.964;2023-01-24T09:17:31;98561.66;;;3.79;76.02
43701;BME280;58809;47.984;7.964;2023-01-24T09:20:34;98558.09;;;3.80;76.49
43701;BME280;58809;47.984;7.964;2023-01-24T09:23:35;98570.22;;;3.81;75.83
43701;BME280;58809;47.984;7.964;2023-01-24T09:26:37;98561.44;;;3.82;76.35
43701;BME280;58809;47.984;7.964;2023-01-24T09:29:38;98562.19;;;3.84;76.41
43701;BME280;58809;47.984;7.964;2023-01-24T09:32:43;98559.75;;;3.94;75.90
43701;BME280;58809;47.984;7.964;2023-01-24T09:35:52;98564.38;;;4.03;75.75
43701;BME280;58809;47.984;7.964;2023-01-24T09:38:54;98570.22;;;4.07;75.12
43701;BME280;58809;47.984;7.964;2023-01-24T09:42:37;98562.69;;;4.15;75.31
43701;BME280;58809;47.984;7.964;2023-01-24T09:45:49;98569.09;;;4.11;75.08
43701;BME280;58809;47.984;7.964;2023-01-24T09:49:12;98571.09;;;4.07;75.04
43701;BME280;58809;47.984;7.964;2023-01-24T09:52:46;98576.72;;;4.01;74.94
43701;BME280;58809;47.984;7.964;2023-01-24T09:55:49;98584.06;;;4.09;74.94
43701;BME280;58809;47.984;7.964;2023-01-24T09:59:34;98579.84;;;4.32;76.45
43701;BME280;58809;47.984;7.964;2023-01-24T10:02:39;98576.25;;;4.46;76.34
43701;BME280;58809;47.984;7.964;2023-01-24T10:05:43;98565.78;;;4.46;75.11
43701;BME280;58809;47.984;7.964;2023-01-24T10:12:14;98578.34;;;4.40;74.33
43701;BME280;58809;47.984;7.964;2023-01-24T10:15:39;98569.56;;;4.41;74.46
43701;BME280;58809;47.984;7.964;2023-01-24T10:18:57;98573.03;;;4.66;74.25
43701;BME280;58809;47.984;7.964;2023-01-24T10:28:41;98569.53;;;5.03;72.38
43701;BME280;58809;47.984;7.964;2023-01-24T10:32:00;98563.94;;;5.07;72.30
43701;BME280;58809;47.984;7.964;2023-01-24T10:35:13;98580.44;;;5.09;72.33
43701;BME280;58809;47.984;7.964;2023-01-24T10:38:17;98571.94;;;5.06;71.97
43701;BME280;58809;47.984;7.964;2023-01-24T10:41:23;98577.53;;;5.01;71.66
43701;BME280;58809;47.984;7.964;2023-01-24T10:44:35;98578.47;;;5.00;71.78
43701;BME280;58809;47.984;7.964;2023-01-24T10:50:51;98575.13;;;4.98;71.87
43701;BME280;58809;47.984;7.964;2023-01-24T10:54:00;98572.06;;;5.04;71.67
43701;BME280;58809;47.984;7.964;2023-01-24T10:57:02;98572.28;;;5.01;71.62
43701;BME280;58809;47.984;7.964;2023-01-24T11:00:12;98568.75;;;5.13;71.66
43701;BME280;58809;47.984;7.964;2023-01-24T11:03:23;98564.94;;;5.17;71.55
43701;BME280;58809;47.984;7.964;2023-01-24T11:09:30;98561.06;;;5.34;70.92
43701;BME280;58809;47.984;7.964;2023-01-24T11:12:32;98564.09;;;5.41;71.02
43701;BME280;58809;47.984;7.964;2023-01-24T11:15:35;98557.16;;;5.40;70.66
43701;BME280;58809;47.984;7.964;2023-01-24T11:18:37;98563.88;;;5.55;70.24
43701;BME280;58809;47.984;7.964;2023-01-24T11:21:50;98562.66;;;5.37;69.70
43701;BME280;58809;47.984;7.964;2023-01-24T11:25:01;98554.41;;;5.42;70.36
43701;BME280;58809;47.984;7.964;2023-01-24T11:28:03;98563.06;;;5.66;69.87
43701;BME280;58809;47.984;7.964;2023-01-24T11:31:16;98551.75;;;5.77;69.29
43701;BME280;58809;47.984;7.964;2023-01-24T11:41:35;98545.41;;;5.68;69.43
43701;BME280;58809;47.984;7.964;2023-01-24T11:51:13;98554.63;;;5.85;68.60
43701;BME280;58809;47.984;7.964;2023-01-24T12:00:58;98539.59;;;6.10;68.54
43701;BME280;58809;47.984;7.964;2023-01-24T12:04:38;98531.97;;;5.95;68.23
43701;BME280;58809;47.984;7.964;2023-01-24T12:08:08;98526.19;;;5.90;68.60
43701;BME280;58809;47.984;7.964;2023-01-24T12:11:29;98528.13;;;5.88;68.63
43701;BME280;58809;47.984;7.964;2023-01-24T12:18:09;98528.47;;;5.84;68.18
43701;BME280;58809;47.984;7.964;2023-01-24T12:21:16;98527.03;;;5.91;68.37
43701;BME280;58809;47.984;7.964;2023-01-24T12:24:24;98521.28;;;5.86;68.58
43701;BME280;58809;47.984;7.964;2023-01-24T12:27:31;98509.34;;;5.82;68.25
43701;BME280;58809;47.984;7.964;2023-01-24T12:30:47;98507.56;;;5.93;68.32
43701;BME280;58809;47.984;7.964;2023-01-24T12:34:03;98510.97;;;5.95;67.99
43701;BME280;58809;47.984;7.964;2023-01-24T12:37:38;98502.25;;;6.06;67.77
43701;BME280;58809;47.984;7.964;2023-01-24T12:43:55;98505.50;;;5.40;68.88
43701;BME280;58809;47.984;7.964;2023-01-24T12:47:31;98513.31;;;5.18;70.30
43701;BME280;58809;47.984;7.964;2023-01-24T12:50:58;98508.84;;;5.07;70.74
43701;BME280;58809;47.984;7.964;2023-01-24T12:54:20;98509.44;;;4.99;70.38
43701;BME280;58809;47.984;7.964;2023-01-24T13:00:52;98513.88;;;5.10;71.10
43701;BME280;58809;47.984;7.964;2023-01-24T13:04:35;98510.59;;;5.42;70.99
43701;BME280;58809;47.984;7.964;2023-01-24T13:11:17;98502.06;;;5.74;69.91
43701;BME280;58809;47.984;7.964;2023-01-24T13:14:23;98502.19;;;5.84;69.45
43701;BME280;58809;47.984;7.964;2023-01-24T13:17:52;98508.06;;;5.98;69.21
43701;BME280;58809;47.984;7.964;2023-01-24T13:34:13;98502.81;;;5.98;69.22
43701;BME280;58809;47.984;7.964;2023-01-24T13:37:24;98502.59;;;6.02;69.31
43701;BME280;58809;47.984;7.964;2023-01-24T13:40:28;98496.03;;;5.96;68.94
43701;BME280;58809;47.984;7.964;2023-01-24T13:52:56;98505.63;;;5.62;69.71
43701;BME280;58809;47.984;7.964;2023-01-24T13:56:03;98502.91;;;5.63;70.61
43701;BME280;58809;47.984;7.964;2023-01-24T13:59:12;98509.13;;;5.73;70.16
43701;BME280;58809;47.984;7.964;2023-01-24T14:02:37;98508.53;;;5.70;69.78
43701;BME280;58809;47.984;7.964;2023-01-24T14:09:00;98510.66;;;5.65;70.57
43701;BME280;58809;47.984;7.964;2023-01-24T14:12:02;98516.25;;;5.71;70.89
43701;BME280;58809;47.984;7.964;2023-01-24T14:19:28;98520.94;;;5.79;70.13
43701;BME280;58809;47.984;7.964;2023-01-24T14:22:17;98517.47;;;5.78;70.93
43701;BME280;58809;47.984;7.964;2023-01-24T14:25:32;98527.97;;;5.67;70.94
43701;BME280;58809;47.984;7.964;2023-01-24T14:28:40;98525.72;;;5.63;70.84
43701;BME280;58809;47.984;7.964;2023-01-24T14:31:46;98520.91;;;5.56;71.31
43701;BME280;58809;47.984;7.964;2023-01-24T14:34:58;98527.47;;;5.51;71.60
43701;BME280;58809;47.984;7.964;2023-01-24T14:38:16;98521.84;;;5.44;71.95
43701;BME280;58809;47.984;7.964;2023-01-24T14:41:21;98527.09;;;5.44;71.87
43701;BME280;58809;47.984;7.964;2023-01-24T14:44:29;98530.28;;;5.36;72.52
43701;BME280;58809;47.984;7.964;2023-01-24T14:47:31;98537.09;;;5.28;72.18
43701;BME280;58809;47.984;7.964;2023-01-24T14:50:35;98551.44;;;5.11;73.24
43701;BME280;58809;47.984;7.964;2023-01-24T14:53:37;98540.94;;;5.11;73.32
43701;BME280;58809;47.984;7.964;2023-01-24T14:56:39;98540.72;;;5.14;73.05
43701;BME280;58809;47.984;7.964;2023-01-24T14:59:41;98541.81;;;5.11;73.67
43701;BME280;58809;47.984;7.964;2023-01-24T15:02:57;98552.72;;;5.05;73.69
43701;BME280;58809;47.984;7.964;2023-01-24T15:09:03;98556.31;;;5.04;73.23
43701;BME280;58809;47.984;7.964;2023-01-24T15:12:25;98567.97;;;5.00;74.13
43701;BME280;58809;47.984;7.964;2023-01-24T15:15:29;98567.50;;;4.95;74.54
43701;BME280;58809;47.984;7.964;2023-01-24T15:21:38;98568.81;;;4.76;74.79
43701;BME280;58809;47.984;7.964;2023-01-24T15:24:40;98568.53;;;4.68;74.92
43701;BME280;58809;47.984;7.964;2023-01-24T15:27:42;98563.66;;;4.51;75.51
43701;BME280;58809;47.984;7.964;2023-01-24T15:31:03;98560.53;;;4.46;75.49
43701;BME280;58809;47.984;7.964;2023-01-24T15:34:17;98562.19;;;4.47;75.75
43701;BME280;58809;47.984;7.964;2023-01-24T15:37:20;98558.00;;;4.44;76.20
43701;BME280;58809;47.984;7.964;2023-01-24T15:40:21;98558.00;;;4.44;76.09
43701;BME280;58809;47.984;7.964;2023-01-24T15:46:57;98578.34;;;4.40;76.11
43701;BME280;58809;47.984;7.964;2023-01-24T15:50:19;98568.53;;;4.31;76.30
43701;BME280;58809;47.984;7.964;2023-01-24T15:53:41;98576.94;;;4.23;76.60
43701;BME280;58809;47.984;7.964;2023-01-24T15:56:43;98576.50;;;4.17;76.84
43701;BME280;58809;47.984;7.964;2023-01-24T16:03:00;98574.44;;;4.09;77.67
43701;BME280;58809;47.984;7.964;2023-01-24T16:06:02;98579.03;;;4.05;77.77
43701;BME280;58809;47.984;7.964;2023-01-24T16:09:04;98567.31;;;3.98;77.88
43701;BME280;58809;47.984;7.964;2023-01-24T16:12:07;98576.53;;;4.04;77.97
43701;BME280;58809;47.984;7.964;2023-01-24T16:15:19;98594.56;;;4.09;78.02
43701;BME280;58809;47.984;7.964;2023-01-24T16:18:20;98584.06;;;4.09;78.73
43701;BME280;58809;47.984;7.964;2023-01-24T16:21:22;98572.53;;;3.98;78.31
43701;BME280;58809;47.984;7.964;2023-01-24T16:24:23;98585.13;;;3.93;78.98
43701;BME280;58809;47.984;7.964;2023-01-24T16:27:27;98581.56;;;3.94;78.79
43701;BME280;58809;47.984;7.964;2023-01-24T16:30:31;98587.72;;;3.93;79.41
43701;BME280;58809;47.984;7.964;2023-01-24T16:33:33;98581.78;;;3.91;79.41
43701;BME280;58809;47.984;7.964;2023-01-24T16:36:35;98589.72;;;3.90;79.71
43701;BME280;58809;47.984;7.964;2023-01-24T16:39:36;98593.50;;;3.85;79.77
43701;BME280;58809;47.984;7.964;2023-01-24T16:42:40;98593.41;;;3.87;80.05
43701;BME280;58809;47.984;7.964;2023-01-24T16:45:44;98593.50;;;3.85;79.96
43701;BME280;58809;47.984;7.964;2023-01-24T16:48:47;98599.78;;;3.83;79.98
43701;BME280;58809;47.984;7.964;2023-01-24T16:51:49;98590.16;;;3.83;80.54
43701;BME280;58809;47.984;7.964;2023-01-24T16:54:51;98595.38;;;3.83;80.39
43701;BME280;58809;47.984;7.964;2023-01-24T16:57:52;98588.47;;;3.82;80.27
43701;BME280;58809;47.984;7.964;2023-01-24T17:00:54;98599.03;;;3.81;80.32
43701;BME280;58809;47.984;7.964;2023-01-24T17:03:56;98594.97;;;3.77;80.64
43701;BME280;58809;47.984;7.964;2023-01-24T17:06:57;98598.94;;;3.70;80.71
43701;BME280;58809;47.984;7.964;2023-01-24T17:10:03;98601.97;;;3.76;81.15
43701;BME280;58809;47.984;7.964;2023-01-24T17:13:18;98604.59;;;3.76;81.04
43701;BME280;58809;47.984;7.964;2023-01-24T17:16:23;98606.16;;;3.79;81.13
43701;BME280;58809;47.984;7.964;2023-01-24T17:19:24;98613.81;;;3.69;80.78
43701;BME280;58809;47.984;7.964;2023-01-24T17:22:28;98603.34;;;3.69;80.90
43701;BME280;58809;47.984;7.964;2023-01-24T17:25:30;98606.50;;;3.74;81.05
43701;BME280;58809;47.984;7.964;2023-01-24T17:28:32;98609.81;;;3.63;80.68
43701;BME280;58809;47.984;7.964;2023-01-24T17:31:33;98613.78;;;3.56;81.00
43701;BME280;58809;47.984;7.964;2023-01-24T17:34:39;98610.53;;;3.53;81.52
43701;BME280;58809;47.984;7.964;2023-01-24T17:37:40;98614.84;;;3.54;81.23
43701;BME280;58809;47.984;7.964;2023-01-24T17:40:42;98622.78;;;3.52;81.12
43701;BME280;58809;47.984;7.964;2023-01-24T17:43:44;98614.84;;;3.54;81.28
43701;BME280;58809;47.984;7.964;2023-01-24T17:46:53;98613.50;;;3.61;80.97
43701;BME280;58809;47.984;7.964;2023-01-24T17:49:55;98631.19;;;3.57;81.31
43701;BME280;58809;47.984;7.964;2023-01-24T17:52:57;98613.78;;;3.56;81.29
43701;BME280;58809;47.984;7.964;2023-01-24T17:55:58;98617.88;;;3.60;81.36
43701;BME280;58809;47.984;7.964;2023-01-24T17:59:00;98621.44;;;3.59;81.33
43701;BME280;58809;47.984;7.964;2023-01-24T18:02:02;98622.19;;;3.61;81.03
43701;BME280;58809;47.984;7.964;2023-01-24T18:05:04;98625.94;;;3.57;81.19
43701;BME280;58809;47.984;7.964;2023-01-24T18:08:06;98620.72;;;3.57;81.22
43701;BME280;58809;47.984;7.964;2023-01-24T18:11:10;98621.53;;;3.58;81.14
43701;BME280;58809;47.984;7.964;2023-01-24T18:14:12;98624.78;;;3.61;81.01
43701;BME280;58809;47.984;7.964;2023-01-24T18:17:13;98622.91;;;3.63;81.22